sensor_id;sensor_type;location;lat;lon;timestamp;pressure;altitude;pressure_sealevel;temperature;humidity
55755;BME280;41674;52.290;-1.474;2023-07-29T00:02:14;99864.20;;;18.06;77.76
55755;BME280;41674;52.290;-1.474;2023-07-29T00:04:43;99861.34;;;17.75;78.95
55755;BME280;41674;52.290;-1.474;2023-07-29T00:07:13;99859.67;;;17.47;79.84
55755;BME280;41674;52.290;-1.474;2023-07-29T00:09:42;99854.72;;;17.24;78.81
55755;BME280;41674;52.290;-1.474;2023-07-29T00:12:12;99856.57;;;17.26;81.92
55755;BME280;41674;52.290;-1.474;2023-07-29T00:14:41;99850.81;;;17.22;83.91
55755;BME280;41674;52.290;-1.474;2023-07-29T00:17:11;99856.22;;;16.40;87.79
55755;BME280;41674;52.290;-1.474;2023-07-29T00:19:41;99854.29;;;16.50;88.19
55755;BME280;41674;52.290;-1.474;2023-07-29T00:22:10;99852.35;;;17.16;85.48
55755;BME280;41674;52.290;-1.474;2023-07-29T00:24:41;99847.64;;;16.54;87.50
55755;BME280;41674;52.290;-1.474;2023-07-29T00:27:09;99848.43;;;16.65;87.45
55755;BME280;41674;52.290;-1.474;2023-07-29T00:29:39;99854.57;;;16.12;90.06
55755;BME280;41674;52.290;-1.474;2023-07-29T00:32:08;99858.47;;;16.78;88.23
55755;BME280;41674;52.290;-1.474;2023-07-29T00:34:38;99858.19;;;16.54;87.81
55755;BME280;41674;52.290;-1.474;2023-07-29T00:37:07;99857.56;;;17.07;86.14
55755;BME280;41674;52.290;-1.474;2023-07-29T00:39:37;99854.31;;;16.70;86.85
55755;BME280;41674;52.290;-1.474;2023-07-29T00:42:08;99857.05;;;16.23;88.60
55755;BME280;41674;52.290;-1.474;2023-07-29T00:44:36;99852.70;;;16.35;88.83
55755;BME280;41674;52.290;-1.474;2023-07-29T00:47:07;99856.10;;;16.23;87.39
55755;BME280;41674;52.290;-1.474;2023-07-29T00:49:35;99861.16;;;15.88;89.35
55755;BME280;41674;52.290;-1.474;2023-07-29T00:52:05;99855.20;;;16.61;87.09
55755;BME280;41674;52.290;-1.474;2023-07-29T00:54:34;99854.10;;;16.81;84.63
55755;BME280;41674;52.290;-1.474;2023-07-29T00:57:04;99851.98;;;16.94;84.06
55755;BME280;41674;52.290;-1.474;2023-07-29T00:59:35;99852.22;;;17.50;79.65
55755;BME280;41674;52.290;-1.474;2023-07-29T01:02:03;99855.30;;;17.23;81.79
55755;BME280;41674;52.290;-1.474;2023-07-29T01:04:32;99850.53;;;16.19;85.15
55755;BME280;41674;52.290;-1.474;2023-07-29T01:07:09;99847.81;;;16.82;82.61
55755;BME280;41674;52.290;-1.474;2023-07-29T01:09:37;99847.54;;;16.81;82.74
55755;BME280;41674;52.290;-1.474;2023-07-29T01:12:08;99839.19;;;16.74;83.19
55755;BME280;41674;52.290;-1.474;2023-07-29T01:14:37;99838.78;;;16.38;85.67
55755;BME280;41674;52.290;-1.474;2023-07-29T01:17:03;99838.59;;;16.19;86.86
55755;BME280;41674;52.290;-1.474;2023-07-29T01:19:41;99835.67;;;17.07;83.54
55755;BME280;41674;52.290;-1.474;2023-07-29T01:21:59;99832.51;;;16.73;84.53
55755;BME280;41674;52.290;-1.474;2023-07-29T01:24:29;99831.45;;;16.86;83.96
55755;BME280;41674;52.290;-1.474;2023-07-29T01:26:58;99829.01;;;16.71;84.96
55755;BME280;41674;52.290;-1.474;2023-07-29T01:29:28;99833.72;;;16.90;83.67
55755;BME280;41674;52.290;-1.474;2023-07-29T01:32:02;99832.29;;;16.89;83.35
55755;BME280;41674;52.290;-1.474;2023-07-29T01:34:32;99834.46;;;17.73;80.82
55755;BME280;41674;52.290;-1.474;2023-07-29T01:36:58;99834.82;;;17.98;79.99
55755;BME280;41674;52.290;-1.474;2023-07-29T01:39:28;99832.19;;;17.44;81.55
55755;BME280;41674;52.290;-1.474;2023-07-29T01:41:55;99828.48;;;17.79;81.40
55755;BME280;41674;52.290;-1.474;2023-07-29T01:44:26;99820.52;;;17.66;80.31
55755;BME280;41674;52.290;-1.474;2023-07-29T01:46:55;99818.52;;;16.79;82.03
55755;BME280;41674;52.290;-1.474;2023-07-29T01:49:24;99823.52;;;17.77;80.29
55755;BME280;41674;52.290;-1.474;2023-07-29T01:51:53;99823.15;;;17.18;82.25
55755;BME280;41674;52.290;-1.474;2023-07-29T01:54:23;99827.07;;;17.72;80.73
55755;BME280;41674;52.290;-1.474;2023-07-29T01:56:52;99820.88;;;17.83;80.38
55755;BME280;41674;52.290;-1.474;2023-07-29T01:59:22;99819.64;;;17.51;81.10
55755;BME280;41674;52.290;-1.474;2023-07-29T02:01:52;99815.16;;;18.41;77.92
55755;BME280;41674;52.290;-1.474;2023-07-29T02:04:21;99818.28;;;17.81;80.12
55755;BME280;41674;52.290;-1.474;2023-07-29T02:06:51;99816.90;;;17.85;80.53
55755;BME280;41674;52.290;-1.474;2023-07-29T02:09:21;99819.55;;;17.65;82.18
55755;BME280;41674;52.290;-1.474;2023-07-29T02:11:50;99815.57;;;17.28;83.10
55755;BME280;41674;52.290;-1.474;2023-07-29T02:14:20;99813.09;;;17.79;80.92
55755;BME280;41674;52.290;-1.474;2023-07-29T02:16:49;99815.46;;;17.07;81.92
55755;BME280;41674;52.290;-1.474;2023-07-29T02:19:18;99818.01;;;17.52;81.31
55755;BME280;41674;52.290;-1.474;2023-07-29T02:21:48;99819.22;;;17.47;80.44
55755;BME280;41674;52.290;-1.474;2023-07-29T02:24:18;99817.49;;;17.96;79.72
55755;BME280;41674;52.290;-1.474;2023-07-29T02:29:17;99823.00;;;17.30;81.75
55755;BME280;41674;52.290;-1.474;2023-07-29T02:31:46;99818.00;;;17.31;80.08
55755;BME280;41674;52.290;-1.474;2023-07-29T02:34:16;99816.35;;;16.94;82.62
55755;BME280;41674;52.290;-1.474;2023-07-29T02:36:45;99816.27;;;16.74;82.97
55755;BME280;41674;52.290;-1.474;2023-07-29T02:39:15;99815.39;;;17.82;80.16
55755;BME280;41674;52.290;-1.474;2023-07-29T02:44:14;99816.36;;;16.98;80.42
55755;BME280;41674;52.290;-1.474;2023-07-29T02:46:44;99814.47;;;17.72;78.41
55755;BME280;41674;52.290;-1.474;2023-07-29T02:49:13;99812.10;;;17.42;77.87
55755;BME280;41674;52.290;-1.474;2023-07-29T02:51:43;99812.36;;;17.04;79.50
55755;BME280;41674;52.290;-1.474;2023-07-29T02:54:12;99809.88;;;17.45;78.20
55755;BME280;41674;52.290;-1.474;2023-07-29T02:56:42;99806.02;;;18.05;76.57
55755;BME280;41674;52.290;-1.474;2023-07-29T02:59:11;99803.34;;;18.33;75.13
55755;BME280;41674;52.290;-1.474;2023-07-29T03:01:41;99807.83;;;17.31;78.19
55755;BME280;41674;52.290;-1.474;2023-07-29T03:04:10;99804.92;;;18.20;75.31
55755;BME280;41674;52.290;-1.474;2023-07-29T03:06:40;99797.45;;;18.85;74.08
55755;BME280;41674;52.290;-1.474;2023-07-29T03:09:09;99805.74;;;17.81;74.93
55755;BME280;41674;52.290;-1.474;2023-07-29T03:11:39;99798.17;;;18.91;73.06
55755;BME280;41674;52.290;-1.474;2023-07-29T03:14:09;99797.97;;;19.20;72.51
55755;BME280;41674;52.290;-1.474;2023-07-29T03:16:38;99795.71;;;18.81;73.08
55755;BME280;41674;52.290;-1.474;2023-07-29T03:19:07;99795.07;;;18.70;74.49
55755;BME280;41674;52.290;-1.474;2023-07-29T03:21:37;99796.35;;;19.46;72.28
55755;BME280;41674;52.290;-1.474;2023-07-29T03:24:07;99798.88;;;19.08;73.19
55755;BME280;41674;52.290;-1.474;2023-07-29T03:26:36;99796.69;;;18.81;74.31
55755;BME280;41674;52.290;-1.474;2023-07-29T03:29:06;99795.74;;;18.53;75.60
55755;BME280;41674;52.290;-1.474;2023-07-29T03:31:35;99794.67;;;18.47;75.97
55755;BME280;41674;52.290;-1.474;2023-07-29T03:34:04;99790.07;;;18.47;76.50
55755;BME280;41674;52.290;-1.474;2023-07-29T03:36:34;99792.10;;;18.63;76.32
55755;BME280;41674;52.290;-1.474;2023-07-29T03:39:03;99791.86;;;18.47;76.68
55755;BME280;41674;52.290;-1.474;2023-07-29T03:41:33;99790.60;;;18.83;75.86
55755;BME280;41674;52.290;-1.474;2023-07-29T03:44:02;99793.20;;;18.46;76.42
55755;BME280;41674;52.290;-1.474;2023-07-29T03:46:32;99792.59;;;18.55;76.34
55755;BME280;41674;52.290;-1.474;2023-07-29T03:49:01;99795.82;;;17.89;78.19
55755;BME280;41674;52.290;-1.474;2023-07-29T03:51:31;99799.70;;;17.86;78.70
55755;BME280;41674;52.290;-1.474;2023-07-29T03:54:01;99798.18;;;18.37;77.52
55755;BME280;41674;52.290;-1.474;2023-07-29T03:56:30;99802.52;;;17.57;78.96
55755;BME280;41674;52.290;-1.474;2023-07-29T03:59:03;99806.30;;;17.67;78.56
55755;BME280;41674;52.290;-1.474;2023-07-29T04:01:29;99804.35;;;18.28;76.71
55755;BME280;41674;52.290;-1.474;2023-07-29T04:03:59;99792.58;;;18.36;74.95
55755;BME280;41674;52.290;-1.474;2023-07-29T04:06:28;99791.56;;;18.65;75.14
55755;BME280;41674;52.290;-1.474;2023-07-29T04:08:58;99791.90;;;18.79;73.47
55755;BME280;41674;52.290;-1.474;2023-07-29T04:11:28;99791.53;;;18.19;74.99
55755;BME280;41674;52.290;-1.474;2023-07-29T04:13:57;99797.88;;;17.72;77.15
55755;BME280;41674;52.290;-1.474;2023-07-29T04:16:26;99796.44;;;17.65;78.90
55755;BME280;41674;52.290;-1.474;2023-07-29T04:18:56;99798.06;;;17.39;79.03
55755;BME280;41674;52.290;-1.474;2023-07-29T04:21:26;99797.20;;;17.84;79.17
55755;BME280;41674;52.290;-1.474;2023-07-29T04:23:55;99797.25;;;17.26;80.16
55755;BME280;41674;52.290;-1.474;2023-07-29T04:26:25;99792.47;;;17.19;81.86
55755;BME280;41674;52.290;-1.474;2023-07-29T04:28:54;99794.68;;;17.15;81.30
55755;BME280;41674;52.290;-1.474;2023-07-29T04:31:24;99795.36;;;17.37;80.50
55755;BME280;41674;52.290;-1.474;2023-07-29T04:33:53;99793.35;;;17.40;80.73
55755;BME280;41674;52.290;-1.474;2023-07-29T04:36:23;99792.59;;;17.33;80.05
55755;BME280;41674;52.290;-1.474;2023-07-29T04:38:53;99795.08;;;17.34;80.35
55755;BME280;41674;52.290;-1.474;2023-07-29T04:41:22;99793.36;;;17.69;79.12
55755;BME280;41674;52.290;-1.474;2023-07-29T04:43:52;99790.68;;;17.65;78.51
55755;BME280;41674;52.290;-1.474;2023-07-29T04:46:21;99792.91;;;18.01;78.12
55755;BME280;41674;52.290;-1.474;2023-07-29T04:48:51;99794.83;;;17.87;77.36
55755;BME280;41674;52.290;-1.474;2023-07-29T04:51:21;99801.56;;;17.92;76.86
55755;BME280;41674;52.290;-1.474;2023-07-29T04:53:50;99806.03;;;17.18;79.79
55755;BME280;41674;52.290;-1.474;2023-07-29T04:56:20;99806.60;;;17.25;79.04
55755;BME280;41674;52.290;-1.474;2023-07-29T04:58:49;99805.35;;;17.34;78.82
55755;BME280;41674;52.290;-1.474;2023-07-29T05:01:19;99798.65;;;17.68;76.76
55755;BME280;41674;52.290;-1.474;2023-07-29T05:03:48;99802.82;;;18.29;75.98
55755;BME280;41674;52.290;-1.474;2023-07-29T05:06:18;99808.95;;;18.10;76.03
55755;BME280;41674;52.290;-1.474;2023-07-29T05:08:47;99804.62;;;18.20;75.41
55755;BME280;41674;52.290;-1.474;2023-07-29T05:11:17;99809.64;;;17.56;76.33
55755;BME280;41674;52.290;-1.474;2023-07-29T05:13:46;99813.49;;;18.51;74.55
55755;BME280;41674;52.290;-1.474;2023-07-29T05:16:16;99816.58;;;18.50;75.02
55755;BME280;41674;52.290;-1.474;2023-07-29T05:18:45;99812.33;;;17.88;76.94
55755;BME280;41674;52.290;-1.474;2023-07-29T05:21:15;99818.62;;;17.39;79.97
55755;BME280;41674;52.290;-1.474;2023-07-29T05:23:45;99819.10;;;17.38;81.94
55755;BME280;41674;52.290;-1.474;2023-07-29T05:26:14;99823.06;;;17.08;82.24
55755;BME280;41674;52.290;-1.474;2023-07-29T05:28:44;99811.52;;;16.79;85.58
55755;BME280;41674;52.290;-1.474;2023-07-29T05:31:13;99822.20;;;16.22;88.27
55755;BME280;41674;52.290;-1.474;2023-07-29T05:33:43;99816.91;;;16.96;86.65
55755;BME280;41674;52.290;-1.474;2023-07-29T05:36:12;99815.46;;;16.72;86.62
55755;BME280;41674;52.290;-1.474;2023-07-29T05:38:42;99819.71;;;17.76;84.56
55755;BME280;41674;52.290;-1.474;2023-07-29T05:41:11;99819.63;;;17.53;85.20
55755;BME280;41674;52.290;-1.474;2023-07-29T05:43:41;99819.78;;;17.34;85.79
55755;BME280;41674;52.290;-1.474;2023-07-29T05:46:11;99824.90;;;17.52;85.17
55755;BME280;41674;52.290;-1.474;2023-07-29T05:48:40;99824.13;;;17.38;85.65
55755;BME280;41674;52.290;-1.474;2023-07-29T05:51:09;99822.48;;;16.84;88.11
55755;BME280;41674;52.290;-1.474;2023-07-29T05:53:39;99819.00;;;16.57;88.92
55755;BME280;41674;52.290;-1.474;2023-07-29T05:56:09;99818.68;;;17.02;87.70
55755;BME280;41674;52.290;-1.474;2023-07-29T05:58:38;99819.90;;;17.08;87.81
55755;BME280;41674;52.290;-1.474;2023-07-29T06:01:08;99814.23;;;16.79;90.18
55755;BME280;41674;52.290;-1.474;2023-07-29T06:03:37;99821.41;;;15.74;92.71
55755;BME280;41674;52.290;-1.474;2023-07-29T06:06:07;99823.30;;;15.98;93.42
55755;BME280;41674;52.290;-1.474;2023-07-29T06:08:36;99824.28;;;15.88;92.92
55755;BME280;41674;52.290;-1.474;2023-07-29T06:11:06;99823.85;;;15.66;93.77
55755;BME280;41674;52.290;-1.474;2023-07-29T06:13:36;99825.05;;;16.28;93.63
55755;BME280;41674;52.290;-1.474;2023-07-29T06:16:05;99822.99;;;16.92;90.42
55755;BME280;41674;52.290;-1.474;2023-07-29T06:18:35;99822.98;;;16.64;92.06
55755;BME280;41674;52.290;-1.474;2023-07-29T06:21:04;99832.92;;;15.97;95.67
55755;BME280;41674;52.290;-1.474;2023-07-29T06:23:34;99829.49;;;15.94;93.84
55755;BME280;41674;52.290;-1.474;2023-07-29T06:26:03;99827.18;;;15.85;94.70
55755;BME280;41674;52.290;-1.474;2023-07-29T06:28:33;99827.55;;;15.97;93.60
55755;BME280;41674;52.290;-1.474;2023-07-29T06:31:02;99834.53;;;16.41;91.74
55755;BME280;41674;52.290;-1.474;2023-07-29T06:33:32;99836.08;;;16.27;91.98
55755;BME280;41674;52.290;-1.474;2023-07-29T06:36:02;99830.93;;;16.21;91.87
55755;BME280;41674;52.290;-1.474;2023-07-29T06:38:31;99824.67;;;16.72;89.64
55755;BME280;41674;52.290;-1.474;2023-07-29T06:41:01;99822.90;;;16.53;90.87
55755;BME280;41674;52.290;-1.474;2023-07-29T06:43:30;99821.84;;;16.59;90.40
55755;BME280;41674;52.290;-1.474;2023-07-29T06:45:59;99821.11;;;17.08;90.49
55755;BME280;41674;52.290;-1.474;2023-07-29T06:48:29;99820.32;;;17.04;88.29
55755;BME280;41674;52.290;-1.474;2023-07-29T06:50:59;99819.52;;;16.35;89.40
55755;BME280;41674;52.290;-1.474;2023-07-29T06:53:28;99820.75;;;16.22;88.59
55755;BME280;41674;52.290;-1.474;2023-07-29T06:55:58;99819.59;;;16.04;89.80
55755;BME280;41674;52.290;-1.474;2023-07-29T06:58:27;99828.22;;;17.21;86.77
55755;BME280;41674;52.290;-1.474;2023-07-29T07:00:57;99831.19;;;16.88;86.78
55755;BME280;41674;52.290;-1.474;2023-07-29T07:03:26;99833.08;;;16.44;87.26
55755;BME280;41674;52.290;-1.474;2023-07-29T07:05:56;99830.39;;;16.58;85.64
55755;BME280;41674;52.290;-1.474;2023-07-29T07:08:25;99829.09;;;16.75;83.95
55755;BME280;41674;52.290;-1.474;2023-07-29T07:10:55;99828.87;;;16.66;82.51
55755;BME280;41674;52.290;-1.474;2023-07-29T07:13:25;99832.90;;;17.70;80.16
55755;BME280;41674;52.290;-1.474;2023-07-29T07:15:54;99833.09;;;16.92;81.77
55755;BME280;41674;52.290;-1.474;2023-07-29T07:18:24;99834.99;;;16.47;83.66
55755;BME280;41674;52.290;-1.474;2023-07-29T07:20:53;99834.72;;;16.91;81.37
55755;BME280;41674;52.290;-1.474;2023-07-29T07:23:23;99833.85;;;16.49;82.81
55755;BME280;41674;52.290;-1.474;2023-07-29T07:28:22;99831.14;;;17.32;80.96
55755;BME280;41674;52.290;-1.474;2023-07-29T07:30:51;99831.13;;;18.04;79.25
55755;BME280;41674;52.290;-1.474;2023-07-29T07:33:21;99833.09;;;18.61;75.89
55755;BME280;41674;52.290;-1.474;2023-07-29T07:35:50;99836.66;;;17.37;80.44
55755;BME280;41674;52.290;-1.474;2023-07-29T07:38:20;99833.52;;;16.60;82.04
55755;BME280;41674;52.290;-1.474;2023-07-29T07:40:53;99835.26;;;16.56;84.08
55755;BME280;41674;52.290;-1.474;2023-07-29T07:43:19;99831.79;;;15.97;86.79
55755;BME280;41674;52.290;-1.474;2023-07-29T07:45:48;99830.75;;;16.01;85.12
55755;BME280;41674;52.290;-1.474;2023-07-29T07:48:18;99831.59;;;17.05;81.84
55755;BME280;41674;52.290;-1.474;2023-07-29T07:50:48;99832.12;;;16.63;83.22
55755;BME280;41674;52.290;-1.474;2023-07-29T07:53:17;99826.25;;;16.58;83.95
55755;BME280;41674;52.290;-1.474;2023-07-29T07:55:47;99821.58;;;16.67;82.40
55755;BME280;41674;52.290;-1.474;2023-07-29T07:58:17;99827.12;;;16.53;83.10
55755;BME280;41674;52.290;-1.474;2023-07-29T08:00:46;99827.05;;;17.11;81.27
55755;BME280;41674;52.290;-1.474;2023-07-29T08:03:15;99825.65;;;17.09;80.17
55755;BME280;41674;52.290;-1.474;2023-07-29T08:05:45;99824.35;;;17.11;78.48
55755;BME280;41674;52.290;-1.474;2023-07-29T08:08:14;99825.14;;;17.56;75.42
55755;BME280;41674;52.290;-1.474;2023-07-29T08:10:44;99827.35;;;16.87;75.69
55755;BME280;41674;52.290;-1.474;2023-07-29T08:13:13;99823.83;;;17.15;78.05
55755;BME280;41674;52.290;-1.474;2023-07-29T08:15:46;99826.71;;;16.90;77.81
55755;BME280;41674;52.290;-1.474;2023-07-29T08:18:12;99827.99;;;16.91;77.74
55755;BME280;41674;52.290;-1.474;2023-07-29T08:23:11;99831.58;;;17.80;75.58
55755;BME280;41674;52.290;-1.474;2023-07-29T08:25:41;99831.39;;;17.23;75.19
55755;BME280;41674;52.290;-1.474;2023-07-29T08:28:11;99829.26;;;16.78;77.76
55755;BME280;41674;52.290;-1.474;2023-07-29T08:30:40;99829.02;;;16.97;78.57
55755;BME280;41674;52.290;-1.474;2023-07-29T08:33:10;99831.90;;;17.06;77.07
55755;BME280;41674;52.290;-1.474;2023-07-29T08:35:39;99825.22;;;17.45;76.65
55755;BME280;41674;52.290;-1.474;2023-07-29T08:38:09;99819.47;;;17.19;79.11
55755;BME280;41674;52.290;-1.474;2023-07-29T08:40:45;99822.83;;;17.36;77.41
55755;BME280;41674;52.290;-1.474;2023-07-29T08:43:08;99823.17;;;16.78;78.87
55755;BME280;41674;52.290;-1.474;2023-07-29T08:45:38;99825.20;;;17.26;78.37
55755;BME280;41674;52.290;-1.474;2023-07-29T08:48:09;99825.21;;;17.15;78.16
55755;BME280;41674;52.290;-1.474;2023-07-29T08:50:37;99825.02;;;16.87;79.40
55755;BME280;41674;52.290;-1.474;2023-07-29T08:53:06;99819.86;;;16.78;79.67
55755;BME280;41674;52.290;-1.474;2023-07-29T08:55:36;99827.49;;;16.61;80.73
55755;BME280;41674;52.290;-1.474;2023-07-29T08:58:05;99827.36;;;17.22;76.33
55755;BME280;41674;52.290;-1.474;2023-07-29T09:00:35;99828.55;;;17.36;78.74
55755;BME280;41674;52.290;-1.474;2023-07-29T09:03:04;99827.59;;;16.91;80.32
55755;BME280;41674;52.290;-1.474;2023-07-29T09:05:34;99827.75;;;16.92;80.52
55755;BME280;41674;52.290;-1.474;2023-07-29T09:08:04;99828.63;;;16.43;78.88
55755;BME280;41674;52.290;-1.474;2023-07-29T09:10:35;99828.92;;;17.43;77.93
55755;BME280;41674;52.290;-1.474;2023-07-29T09:13:02;99828.47;;;17.15;78.96
55755;BME280;41674;52.290;-1.474;2023-07-29T09:15:34;99826.35;;;17.69;77.12
55755;BME280;41674;52.290;-1.474;2023-07-29T09:18:10;99825.46;;;16.92;81.56
55755;BME280;41674;52.290;-1.474;2023-07-29T09:20:33;99832.03;;;17.42;79.55
55755;BME280;41674;52.290;-1.474;2023-07-29T09:23:01;99833.46;;;17.06;79.33
55755;BME280;41674;52.290;-1.474;2023-07-29T09:25:30;99833.99;;;17.15;79.31
55755;BME280;41674;52.290;-1.474;2023-07-29T09:28:00;99835.35;;;17.33;79.37
55755;BME280;41674;52.290;-1.474;2023-07-29T09:30:30;99833.60;;;17.04;79.91
55755;BME280;41674;52.290;-1.474;2023-07-29T09:32:59;99837.83;;;17.55;77.93
55755;BME280;41674;52.290;-1.474;2023-07-29T09:35:29;99832.60;;;17.01;77.79
55755;BME280;41674;52.290;-1.474;2023-07-29T09:37:58;99837.53;;;17.49;78.18
55755;BME280;41674;52.290;-1.474;2023-07-29T09:40:27;99836.51;;;16.63;77.62
55755;BME280;41674;52.290;-1.474;2023-07-29T09:42:57;99841.80;;;16.22;76.62
55755;BME280;41674;52.290;-1.474;2023-07-29T09:45:27;99841.99;;;16.22;77.51
55755;BME280;41674;52.290;-1.474;2023-07-29T09:47:57;99840.31;;;16.40;77.02
55755;BME280;41674;52.290;-1.474;2023-07-29T09:50:26;99845.90;;;16.68;74.24
55755;BME280;41674;52.290;-1.474;2023-07-29T09:52:56;99849.83;;;16.81;74.46
55755;BME280;41674;52.290;-1.474;2023-07-29T09:55:25;99849.13;;;17.68;71.97
55755;BME280;41674;52.290;-1.474;2023-07-29T09:57:56;99849.46;;;18.04;69.23
55755;BME280;41674;52.290;-1.474;2023-07-29T10:00:24;99850.31;;;17.85;67.79
55755;BME280;41674;52.290;-1.474;2023-07-29T10:05:25;99850.15;;;18.27;69.05
55755;BME280;41674;52.290;-1.474;2023-07-29T10:07:54;99859.96;;;18.54;67.58
55755;BME280;41674;52.290;-1.474;2023-07-29T10:10:22;99853.21;;;18.81;69.57
55755;BME280;41674;52.290;-1.474;2023-07-29T10:12:52;99858.75;;;18.93;68.06
55755;BME280;41674;52.290;-1.474;2023-07-29T10:15:21;99857.86;;;19.16;69.04
55755;BME280;41674;52.290;-1.474;2023-07-29T10:17:51;99854.66;;;19.16;69.51
55755;BME280;41674;52.290;-1.474;2023-07-29T10:20:20;99856.60;;;19.26;70.69
55755;BME280;41674;52.290;-1.474;2023-07-29T10:22:51;99856.87;;;19.00;72.07
55755;BME280;41674;52.290;-1.474;2023-07-29T10:25:22;99853.95;;;19.19;71.24
55755;BME280;41674;52.290;-1.474;2023-07-29T10:30:18;99848.13;;;20.00;64.03
55755;BME280;41674;52.290;-1.474;2023-07-29T10:32:50;99845.31;;;20.11;65.36
55755;BME280;41674;52.290;-1.474;2023-07-29T10:35:17;99858.15;;;19.30;63.69
55755;BME280;41674;52.290;-1.474;2023-07-29T10:37:47;99854.26;;;20.01;62.42
55755;BME280;41674;52.290;-1.474;2023-07-29T10:40:16;99846.09;;;19.61;61.51
55755;BME280;41674;52.290;-1.474;2023-07-29T10:45:19;99854.19;;;19.85;60.36
55755;BME280;41674;52.290;-1.474;2023-07-29T10:47:45;99852.65;;;19.46;61.13
55755;BME280;41674;52.290;-1.474;2023-07-29T10:50:18;99845.48;;;19.77;63.67
55755;BME280;41674;52.290;-1.474;2023-07-29T10:52:44;99847.40;;;20.16;62.39
55755;BME280;41674;52.290;-1.474;2023-07-29T10:55:25;99841.99;;;19.83;62.48
55755;BME280;41674;52.290;-1.474;2023-07-29T10:57:45;99845.40;;;20.07;60.21
55755;BME280;41674;52.290;-1.474;2023-07-29T11:00:16;99854.85;;;19.69;58.27
55755;BME280;41674;52.290;-1.474;2023-07-29T11:02:42;99852.18;;;19.33;60.07
55755;BME280;41674;52.290;-1.474;2023-07-29T11:05:17;99854.55;;;19.86;59.64
55755;BME280;41674;52.290;-1.474;2023-07-29T11:07:45;99858.58;;;20.35;60.99
55755;BME280;41674;52.290;-1.474;2023-07-29T11:10:11;99865.31;;;19.57;64.85
55755;BME280;41674;52.290;-1.474;2023-07-29T11:12:42;99866.87;;;19.06;63.74
55755;BME280;41674;52.290;-1.474;2023-07-29T11:15:15;99872.96;;;18.66;64.17
55755;BME280;41674;52.290;-1.474;2023-07-29T11:17:40;99879.23;;;17.80;69.06
55755;BME280;41674;52.290;-1.474;2023-07-29T11:20:09;99884.28;;;17.07;71.39
55755;BME280;41674;52.290;-1.474;2023-07-29T11:22:38;99892.58;;;17.08;79.05
55755;BME280;41674;52.290;-1.474;2023-07-29T11:25:09;99892.61;;;16.59;81.31
55755;BME280;41674;52.290;-1.474;2023-07-29T11:27:37;99894.07;;;16.59;80.94
55755;BME280;41674;52.290;-1.474;2023-07-29T11:30:08;99898.37;;;17.37;80.07
55755;BME280;41674;52.290;-1.474;2023-07-29T11:32:37;99896.10;;;17.42;78.14
55755;BME280;41674;52.290;-1.474;2023-07-29T11:35:07;99900.01;;;18.31;75.19
55755;BME280;41674;52.290;-1.474;2023-07-29T11:37:36;99892.36;;;19.31;76.55
55755;BME280;41674;52.290;-1.474;2023-07-29T11:40:06;99900.16;;;18.02;76.92
55755;BME280;41674;52.290;-1.474;2023-07-29T11:42:34;99901.79;;;18.26;66.15
55755;BME280;41674;52.290;-1.474;2023-07-29T11:45:05;99902.73;;;18.23;68.50
55755;BME280;41674;52.290;-1.474;2023-07-29T11:47:34;99903.36;;;17.43;70.27
55755;BME280;41674;52.290;-1.474;2023-07-29T11:50:04;99899.58;;;17.41;69.54
55755;BME280;41674;52.290;-1.474;2023-07-29T11:52:32;99906.01;;;17.61;69.94
55755;BME280;41674;52.290;-1.474;2023-07-29T11:55:03;99894.94;;;18.26;65.17
55755;BME280;41674;52.290;-1.474;2023-07-29T11:57:33;99894.95;;;18.33;64.46
55755;BME280;41674;52.290;-1.474;2023-07-29T12:00:04;99889.20;;;19.40;64.20
55755;BME280;41674;52.290;-1.474;2023-07-29T12:02:31;99892.52;;;19.27;62.06
55755;BME280;41674;52.290;-1.474;2023-07-29T12:05:00;99897.20;;;18.97;61.67
55755;BME280;41674;52.290;-1.474;2023-07-29T12:07:29;99898.03;;;18.86;62.98
55755;BME280;41674;52.290;-1.474;2023-07-29T12:09:59;99888.74;;;19.50;59.50
55755;BME280;41674;52.290;-1.474;2023-07-29T12:12:28;99894.64;;;20.03;63.55
55755;BME280;41674;52.290;-1.474;2023-07-29T12:14:58;99891.66;;;20.07;58.36
55755;BME280;41674;52.290;-1.474;2023-07-29T12:17:28;99887.98;;;20.28;57.00
55755;BME280;41674;52.290;-1.474;2023-07-29T12:19:57;99892.52;;;19.75;57.72
55755;BME280;41674;52.290;-1.474;2023-07-29T12:22:26;99886.47;;;20.31;59.60
55755;BME280;41674;52.290;-1.474;2023-07-29T12:24:56;99884.54;;;20.60;57.47
55755;BME280;41674;52.290;-1.474;2023-07-29T12:27:25;99880.64;;;20.40;57.95
55755;BME280;41674;52.290;-1.474;2023-07-29T12:29:55;99877.78;;;20.75;55.29
55755;BME280;41674;52.290;-1.474;2023-07-29T12:32:25;99865.41;;;20.95;54.83
55755;BME280;41674;52.290;-1.474;2023-07-29T12:34:54;99870.74;;;20.13;52.63
55755;BME280;41674;52.290;-1.474;2023-07-29T12:37:31;99875.61;;;20.51;53.64
55755;BME280;41674;52.290;-1.474;2023-07-29T12:39:53;99884.65;;;20.27;53.08
55755;BME280;41674;52.290;-1.474;2023-07-29T12:42:22;99881.32;;;19.91;53.37
55755;BME280;41674;52.290;-1.474;2023-07-29T12:44:53;99882.68;;;20.50;53.34
55755;BME280;41674;52.290;-1.474;2023-07-29T12:47:21;99881.49;;;20.33;53.36
55755;BME280;41674;52.290;-1.474;2023-07-29T12:49:51;99882.45;;;20.44;53.85
55755;BME280;41674;52.290;-1.474;2023-07-29T12:52:20;99877.86;;;20.40;51.24
55755;BME280;41674;52.290;-1.474;2023-07-29T12:54:50;99882.54;;;21.42;52.00
55755;BME280;41674;52.290;-1.474;2023-07-29T12:57:19;99885.69;;;20.71;47.80
55755;BME280;41674;52.290;-1.474;2023-07-29T12:59:49;99885.86;;;20.67;49.99
55755;BME280;41674;52.290;-1.474;2023-07-29T13:02:18;99884.93;;;20.87;49.21
55755;BME280;41674;52.290;-1.474;2023-07-29T13:04:48;99881.78;;;20.48;51.48
55755;BME280;41674;52.290;-1.474;2023-07-29T13:07:17;99881.64;;;20.13;50.40
55755;BME280;41674;52.290;-1.474;2023-07-29T13:09:47;99886.06;;;21.09;48.87
55755;BME280;41674;52.290;-1.474;2023-07-29T13:12:17;99886.86;;;20.61;49.46
55755;BME280;41674;52.290;-1.474;2023-07-29T13:14:46;99885.23;;;19.65;52.93
55755;BME280;41674;52.290;-1.474;2023-07-29T13:17:16;99885.74;;;20.59;49.89
55755;BME280;41674;52.290;-1.474;2023-07-29T13:19:45;99876.60;;;20.86;51.28